Terminal Aerodrome Forecast
Issued by NWS Cheyenne, WY

Home | Current Version | Previous Version | Text Only | Print | Product List | Glossary On
Versions: 1 2 3 4 5 6 7 8 9 10 11 12 13 14 15 16 17 18 19 20 21 22 23 24 25 26 27
000
FTUS45 KCYS 031736
TAFCYS
TAF
KCYS 031736Z 0318/0418 34015G25KT P6SM SCT150
     FM031900 05015G25KT P6SM VCTS BKN070CB
     FM040200 08007KT P6SM SCT050
     FM040400 13005KT P6SM OVC020
     FM040900 14005KT 4SM -DZ BR OVC005=

USA.gov is the U.S. government's official web portal to all federal, state and local government web resources and services.